Time;durP1;ratioP1;P1;durP2;ratioP2;P2;SDS_P1;SDS_P2;PMS_P1;PMS_P2;Temp;Humidity;BMP_temperature;BMP_pressure;BME280_temperature;BME280_humidity;BME280_pressure;Samples;Min_cycle;Max_cycle;Signal;HPM_P1;HPM_P2
2022/11/03 00:01:11;;;;;;;3.70;1.08;;;20.50;62.70;;;;;;6282678;28;20178;-70
2022/11/03 00:04:14;;;;;;;1.70;0.60;;;20.50;62.80;;;;;;6294170;28;20024;-70
2022/11/03 00:07:21;;;;;;;1.30;0.60;;;20.50;62.60;;;;;;6295625;28;20025;-71
2022/11/03 00:10:21;;;;;;;1.95;0.95;;;20.60;62.80;;;;;;6293192;28;20078;-70
2022/11/03 00:13:22;;;;;;;2.25;0.82;;;20.50;62.50;;;;;;6295298;28;20056;-71
2022/11/03 00:16:22;;;;;;;1.73;0.75;;;20.60;62.70;;;;;;6294878;28;20028;-69
2022/11/03 00:19:23;;;;;;;1.42;0.63;;;20.50;62.30;;;;;;6295163;28;20127;-69
2022/11/03 00:22:24;;;;;;;1.70;0.60;;;20.60;62.50;;;;;;6294824;28;20021;-70
2022/11/03 00:25:24;;;;;;;1.02;0.55;;;20.50;62.30;;;;;;6293535;28;20029;-70
2022/11/03 00:28:25;;;;;;;1.10;0.57;;;20.60;62.40;;;;;;6294438;28;20336;-71
2022/11/03 00:31:28;;;;;;;0.52;0.47;;;20.50;62.30;;;;;;6294781;28;20513;-70
2022/11/03 00:34:28;;;;;;;1.55;0.60;;;20.50;62.10;;;;;;6294180;28;20021;-70
2022/11/03 00:37:29;;;;;;;1.40;0.60;;;20.60;62.70;;;;;;6294037;28;20304;-70
2022/11/03 00:40:30;;;;;;;0.65;0.50;;;20.50;62.30;;;;;;6294388;28;20498;-70
2022/11/03 00:43:32;;;;;;;0.95;0.57;;;20.60;62.40;;;;;;6293866;28;20382;-70
2022/11/03 00:46:34;;;;;;;2.10;0.85;;;20.50;62.30;;;;;;6294511;28;20033;-70
2022/11/03 00:49:34;;;;;;;1.67;0.65;;;20.50;62.40;;;;;;6294367;28;20025;-70
2022/11/03 00:52:35;;;;;;;1.42;0.70;;;20.50;62.30;;;;;;6293495;28;20522;-71
2022/11/03 00:55:36;;;;;;;1.63;0.60;;;20.60;62.30;;;;;;6294227;28;20065;-70
2022/11/03 00:58:37;;;;;;;1.02;0.50;;;20.60;62.50;;;;;;6293409;28;20025;-70
2022/11/03 01:01:43;;;;;;;2.28;1.17;;;20.50;62.20;;;;;;6294010;28;20513;-71
2022/11/03 01:08:03;;;;;;;1.05;0.73;;;20.60;62.20;;;;;;6293743;28;20103;-70
2022/11/03 01:14:37;;;;;;;1.52;0.50;;;20.50;62.20;;;;;;6268913;28;20107;-69
2022/11/03 01:17:39;;;;;;;1.08;0.63;;;20.50;62.20;;;;;;6279870;28;20025;-71
2022/11/03 01:20:40;;;;;;;1.33;0.70;;;20.50;62.40;;;;;;6293201;28;20032;-70
2022/11/03 01:23:41;;;;;;;2.03;0.70;;;20.50;62.20;;;;;;6292832;28;20021;-70
2022/11/03 01:26:41;;;;;;;0.60;0.40;;;20.50;62.20;;;;;;6294058;28;20111;-71
2022/11/03 01:29:42;;;;;;;1.35;0.85;;;20.50;62.10;;;;;;6293117;28;20036;-69
2022/11/03 01:32:43;;;;;;;1.30;0.68;;;20.50;62.30;;;;;;6293509;28;20032;-70
2022/11/03 01:35:43;;;;;;;1.08;0.68;;;20.50;62.40;;;;;;6292531;28;20020;-70
2022/11/03 01:38:45;;;;;;;0.80;0.43;;;20.50;62.30;;;;;;6293048;28;20035;-70
2022/11/03 01:41:48;;;;;;;1.15;0.50;;;20.50;62.40;;;;;;6292162;28;20044;-69
2022/11/03 01:44:49;;;;;;;1.40;0.68;;;20.50;62.20;;;;;;6292579;28;20501;-71
2022/11/03 01:47:49;;;;;;;0.80;0.60;;;20.50;62.50;;;;;;6292537;28;20032;-71
2022/11/03 01:50:51;;;;;;;1.17;0.60;;;20.50;62.30;;;;;;6292491;28;20075;-70
2022/11/03 01:53:54;;;;;;;1.25;0.60;;;20.50;62.50;;;;;;6292882;28;20052;-70
2022/11/03 01:56:57;;;;;;;0.65;0.50;;;20.50;62.20;;;;;;6292458;28;20387;-70
2022/11/03 01:59:59;;;;;;;1.30;0.60;;;20.50;62.40;;;;;;6292532;28;20479;-70
2022/11/03 02:03:00;;;;;;;0.68;0.60;;;20.50;62.90;;;;;;6292556;28;20019;-70
2022/11/03 02:06:02;;;;;;;1.00;0.50;;;20.50;62.40;;;;;;6292816;28;20039;-71
2022/11/03 02:09:06;;;;;;;1.48;0.73;;;20.50;62.70;;;;;;6292180;28;20017;-70
2022/11/03 02:12:08;;;;;;;0.40;0.40;;;20.50;62.70;;;;;;6292282;28;20357;-70
2022/11/03 02:15:12;;;;;;;0.82;0.70;;;20.50;62.70;;;;;;6291804;28;20475;-70
2022/11/03 02:18:14;;;;;;;0.80;0.60;;;20.50;62.30;;;;;;6292373;28;20055;-69
2022/11/03 02:21:24;;;;;;;0.90;0.70;;;20.50;62.60;;;;;;6292166;28;20033;-69
2022/11/03 02:24:54;;;;;;;0.85;0.50;;;20.50;62.50;;;;;;6291880;28;20328;-70
2022/11/03 02:27:54;;;;;;;1.85;0.80;;;20.50;62.60;;;;;;6291942;28;20013;-70
2022/11/03 02:31:15;;;;;;;1.33;0.75;;;20.50;62.70;;;;;;6291967;28;20028;-70
2022/11/03 02:34:28;;;;;;;1.80;0.50;;;20.50;62.80;;;;;;6291821;28;20035;-70
2022/11/03 02:37:35;;;;;;;0.60;0.45;;;20.50;62.90;;;;;;6292080;28;20021;-71
2022/11/03 02:40:41;;;;;;;1.50;0.82;;;20.50;62.50;;;;;;6291371;28;20071;-70
2022/11/03 02:43:44;;;;;;;0.65;0.40;;;20.50;62.90;;;;;;6292344;28;20431;-71
2022/11/03 02:46:49;;;;;;;0.82;0.60;;;20.50;62.90;;;;;;6291656;28;20150;-70
2022/11/03 02:49:52;;;;;;;0.77;0.52;;;20.50;62.90;;;;;;6292108;28;20482;-70
2022/11/03 02:52:53;;;;;;;2.03;0.63;;;20.50;62.90;;;;;;6291608;28;20052;-70
2022/11/03 02:56:19;;;;;;;0.85;0.52;;;20.50;62.90;;;;;;6266541;28;20029;-70
2022/11/03 02:59:26;;;;;;;0.90;0.68;;;20.50;62.90;;;;;;6282147;28;20383;-70
2022/11/03 03:02:40;;;;;;;0.80;0.63;;;20.50;62.90;;;;;;6296576;28;20434;-70
2022/11/03 03:05:43;;;;;;;1.73;0.60;;;20.40;62.80;;;;;;6296133;28;20088;-69
2022/11/03 03:08:48;;;;;;;1.02;0.52;;;20.50;62.80;;;;;;6297106;28;20447;-70
2022/11/03 03:11:51;;;;;;;1.27;0.77;;;20.40;62.80;;;;;;6296290;28;20375;-70
2022/11/03 03:14:54;;;;;;;1.48;0.80;;;20.50;63.70;;;;;;6295521;28;20601;-70
2022/11/03 03:18:06;;;;;;;0.50;0.47;;;20.50;62.90;;;;;;6296609;28;20063;-70
2022/11/03 03:21:13;;;;;;;1.02;0.60;;;20.50;62.90;;;;;;6295959;28;20039;-70
2022/11/03 03:24:22;;;;;;;0.60;0.35;;;20.50;62.90;;;;;;6294802;28;20029;-71
2022/11/03 03:27:25;;;;;;;1.38;0.73;;;20.50;62.80;;;;;;6295892;28;20024;-71
2022/11/03 03:30:28;;;;;;;0.90;0.68;;;20.50;62.80;;;;;;6295585;28;20506;-70
2022/11/03 03:33:30;;;;;;;0.75;0.60;;;20.50;62.80;;;;;;6296156;28;20025;-70
2022/11/03 03:36:33;;;;;;;0.95;0.70;;;20.50;62.80;;;;;;6295360;28;20411;-70
2022/11/03 03:39:37;;;;;;;0.63;0.40;;;20.40;63.70;;;;;;6295514;28;20168;-70
2022/11/03 03:42:41;;;;;;;0.68;0.55;;;20.50;62.80;;;;;;6295546;28;20031;-70
2022/11/03 03:45:44;;;;;;;0.60;0.47;;;20.50;62.80;;;;;;6295306;28;20033;-70
2022/11/03 03:48:44;;;;;;;1.15;0.70;;;20.40;62.70;;;;;;6295606;28;20475;-70
2022/11/03 03:51:47;;;;;;;1.17;0.65;;;20.50;62.80;;;;;;6294437;28;20132;-70
2022/11/03 03:54:47;;;;;;;0.65;0.50;;;20.50;62.80;;;;;;6293913;28;20115;-70
2022/11/03 03:57:48;;;;;;;0.60;0.50;;;20.50;62.80;;;;;;6293734;28;20513;-71
2022/11/03 04:00:49;;;;;;;1.65;0.65;;;20.50;63.00;;;;;;6293486;28;20032;-71
2022/11/03 04:03:49;;;;;;;1.40;0.60;;;20.50;62.80;;;;;;6293853;28;20035;-70
2022/11/03 04:07:45;;;;;;;1.00;0.60;;;20.50;62.80;;;;;;6293102;28;20040;-70
2022/11/03 04:10:10;;;;;;;0.95;0.70;;;20.40;62.70;;;;;;6292599;28;20112;-70
2022/11/03 04:23:08;;;;;;;0.90;0.43;;;20.40;62.70;;;;;;6293464;28;20028;-70
2022/11/03 04:26:14;;;;;;;0.93;0.52;;;20.40;62.70;;;;;;6294473;28;20107;-70
2022/11/03 04:29:15;;;;;;;1.27;0.60;;;20.50;63.60;;;;;;6293301;28;20013;-70
2022/11/03 04:32:17;;;;;;;1.15;0.60;;;20.50;62.80;;;;;;6293225;28;20027;-69
2022/11/03 04:35:25;;;;;;;1.13;0.60;;;20.50;62.80;;;;;;6292973;28;20029;-71
2022/11/03 04:38:28;;;;;;;0.88;0.60;;;20.50;62.70;;;;;;6293244;28;20309;-71
2022/11/03 04:41:31;;;;;;;1.20;0.68;;;20.40;62.60;;;;;;6292697;28;20025;-71
2022/11/03 04:44:32;;;;;;;0.85;0.63;;;20.40;62.60;;;;;;6292651;28;20020;-70
2022/11/03 04:47:32;;;;;;;0.95;0.60;;;20.40;62.60;;;;;;6293035;28;20027;-70
2022/11/03 04:50:34;;;;;;;1.00;0.68;;;20.50;62.70;;;;;;6248630;28;1269730;-70
2022/11/03 04:53:34;;;;;;;0.82;0.70;;;20.50;62.80;;;;;;6293859;28;20029;-70
2022/11/03 04:56:35;;;;;;;0.75;0.55;;;20.40;62.60;;;;;;6294211;28;20021;-71
2022/11/03 05:03:35;;;;;;;1.40;0.70;;;20.50;62.80;;;;;;6268969;28;20483;-70
2022/11/03 05:06:35;;;;;;;1.50;0.80;;;20.50;62.70;;;;;;6281249;28;20125;-69
2022/11/03 05:09:36;;;;;;;2.28;0.80;;;20.40;62.60;;;;;;6293757;28;20104;-70
2022/11/03 05:12:37;;;;;;;0.93;0.63;;;20.40;62.60;;;;;;6293078;28;20024;-70
2022/11/03 05:15:42;;;;;;;1.65;0.70;;;20.40;62.60;;;;;;6293372;28;20029;-70
2022/11/03 05:18:44;;;;;;;0.65;0.60;;;20.40;62.60;;;;;;6292723;28;20540;-71
2022/11/03 05:21:48;;;;;;;1.08;0.70;;;20.40;62.60;;;;;;6292301;28;20032;-70
2022/11/03 05:24:57;;;;;;;1.17;0.70;;;20.50;62.70;;;;;;6295451;28;20039;-70
2022/11/03 05:27:57;;;;;;;1.77;0.88;;;20.50;62.60;;;;;;6292857;28;20032;-70
2022/11/03 05:30:58;;;;;;;1.60;1.00;;;20.40;62.50;;;;;;6293184;28;20020;-70
2022/11/03 05:34:18;;;;;;;1.55;0.77;;;20.50;62.60;;;;;;6293141;28;20115;-70
2022/11/03 05:37:23;;;;;;;1.13;0.90;;;20.40;62.50;;;;;;6292407;28;20060;-70
2022/11/03 05:40:25;;;;;;;1.40;0.80;;;20.50;62.50;;;;;;6293081;28;20068;-71
2022/11/03 05:43:26;;;;;;;1.70;0.77;;;20.50;62.50;;;;;;6292311;28;20020;-69
2022/11/03 05:46:32;;;;;;;2.33;0.90;;;20.50;62.50;;;;;;6292163;28;20024;-69
2022/11/03 05:49:33;;;;;;;1.48;0.80;;;20.50;62.50;;;;;;6292689;28;20023;-69
2022/11/03 05:52:34;;;;;;;1.08;0.68;;;20.50;62.50;;;;;;6292229;28;20052;-69
2022/11/03 05:55:36;;;;;;;0.88;0.70;;;20.50;62.50;;;;;;6292548;28;20086;-70
2022/11/03 05:58:38;;;;;;;1.33;0.82;;;20.50;62.50;;;;;;6291772;28;20029;-70
2022/11/03 06:01:40;;;;;;;1.10;0.80;;;20.50;63.30;;;;;;6289064;28;20032;-70
2022/11/03 06:04:40;;;;;;;1.48;1.00;;;20.40;62.30;;;;;;6292017;28;20020;-70
2022/11/03 06:07:41;;;;;;;1.33;0.80;;;20.50;62.50;;;;;;6290866;28;20118;-70
2022/11/03 06:10:48;;;;;;;2.88;0.75;;;20.40;62.40;;;;;;6292067;28;20025;-70
2022/11/03 06:13:48;;;;;;;2.03;1.17;;;20.50;62.40;;;;;;6292565;28;20382;-70
2022/11/03 06:16:51;;;;;;;1.42;0.90;;;20.50;62.40;;;;;;6291423;28;20037;-71
2022/11/03 06:19:56;;;;;;;2.65;0.90;;;20.50;62.30;;;;;;6292133;28;20025;-69
2022/11/03 06:22:57;;;;;;;2.78;1.13;;;20.50;62.40;;;;;;6292042;28;20017;-69
2022/11/03 06:25:58;;;;;;;1.40;0.90;;;20.50;62.40;;;;;;6292681;28;20035;-69
2022/11/03 06:28:59;;;;;;;1.05;0.82;;;20.50;62.40;;;;;;6291830;28;20372;-70
2022/11/03 06:32:00;;;;;;;1.17;0.90;;;20.50;62.40;;;;;;6291222;28;20123;-69
2022/11/03 06:35:01;;;;;;;2.05;1.00;;;20.50;62.40;;;;;;6273449;28;20044;-69
2022/11/03 06:38:01;;;;;;;1.98;1.20;;;20.50;62.40;;;;;;6290499;28;20025;-70
2022/11/03 06:41:02;;;;;;;1.10;0.80;;;20.40;63.10;;;;;;6290611;28;20033;-70
2022/11/03 06:44:23;;;;;;;1.40;0.85;;;20.50;62.40;;;;;;6290784;28;20249;-71
2022/11/03 06:47:28;;;;;;;1.40;1.02;;;20.50;62.40;;;;;;6281983;28;20032;-69
2022/11/03 06:50:31;;;;;;;0.85;0.68;;;20.50;62.40;;;;;;6290693;28;20052;-70
2022/11/03 06:53:33;;;;;;;1.95;1.35;;;20.50;62.30;;;;;;6277342;28;20060;-70
2022/11/03 06:56:36;;;;;;;1.58;0.90;;;20.50;62.30;;;;;;6286534;28;20024;-70
2022/11/03 06:59:36;;;;;;;4.40;0.95;;;20.50;62.20;;;;;;6287271;28;20033;-70
2022/11/03 07:03:06;;;;;;;1.52;0.93;;;20.50;62.20;;;;;;6289041;28;20415;-70
2022/11/03 07:06:10;;;;;;;2.22;1.02;;;20.50;62.10;;;;;;6284180;28;20081;-70
2022/11/03 07:09:22;;;;;;;2.42;1.05;;;20.50;62.20;;;;;;6292107;28;20119;-70
2022/11/03 07:12:23;;;;;;;2.22;1.20;;;20.50;62.10;;;;;;6292677;28;20017;-70
2022/11/03 07:15:29;;;;;;;2.13;1.30;;;20.50;62.10;;;;;;6292150;28;20026;-69
2022/11/03 07:18:38;;;;;;;5.32;1.00;;;20.50;62.10;;;;;;6292191;28;20391;-70
2022/11/03 07:21:53;;;;;;;1.35;0.95;;;20.50;62.20;;;;;;6292464;28;20037;-69
2022/11/03 07:24:55;;;;;;;;;;;20.50;62.20;;;;;;6293010;28;20024;-69
2022/11/03 07:27:56;;;;;;;2.63;1.20;;;20.50;62.20;;;;;;6291899;28;19969;-70
2022/11/03 07:31:00;;;;;;;2.00;1.23;;;20.50;62.20;;;;;;6292407;28;20056;-69
2022/11/03 07:34:00;;;;;;;2.35;1.10;;;20.50;62.10;;;;;;6283511;28;20115;-69
2022/11/03 07:37:01;;;;;;;1.85;0.82;;;20.50;62.10;;;;;;6292301;28;20387;-71
2022/11/03 07:40:03;;;;;;;2.30;1.13;;;20.50;62.20;;;;;;6291587;28;20151;-69
2022/11/03 07:43:24;;;;;;;4.47;1.10;;;20.50;62.20;;;;;;6282792;28;20683;-70
2022/11/03 07:46:25;;;;;;;5.20;1.30;;;20.50;62.20;;;;;;6296055;28;20036;-69
2022/11/03 07:49:27;;;;;;;5.80;1.20;;;20.50;62.20;;;;;;6296365;28;20029;-71
2022/11/03 07:52:28;;;;;;;1.88;1.10;;;20.50;62.10;;;;;;6296452;28;20048;-70
2022/11/03 07:55:28;;;;;;;1.00;0.80;;;20.50;62.20;;;;;;6296239;28;20027;-70
2022/11/03 07:58:38;;;;;;;4.72;1.45;;;20.50;62.20;;;;;;6296214;28;20025;-70
2022/11/03 08:01:52;;;;;;;2.22;1.17;;;20.50;62.20;;;;;;6296742;28;20120;-69
2022/11/03 08:04:52;;;;;;;2.47;1.00;;;20.50;62.20;;;;;;6297033;28;20024;-70
2022/11/03 08:07:53;;;;;;;2.05;1.08;;;20.50;62.20;;;;;;6295149;28;20497;-70
2022/11/03 08:10:54;;;;;;;1.90;1.10;;;20.50;62.20;;;;;;6294312;28;20028;-70
2022/11/03 08:13:54;;;;;;;2.22;1.00;;;20.50;62.20;;;;;;6296276;28;20032;-70
2022/11/03 08:16:55;;;;;;;1.25;1.00;;;20.50;62.20;;;;;;6296591;28;20052;-70
2022/11/03 08:19:56;;;;;;;2.28;1.00;;;20.50;62.20;;;;;;6295763;28;20105;-70
2022/11/03 08:22:56;;;;;;;3.80;1.10;;;20.50;62.20;;;;;;6295400;28;20024;-69
2022/11/03 08:25:57;;;;;;;4.70;1.48;;;20.50;62.20;;;;;;6295132;28;20075;-69
2022/11/03 08:28:57;;;;;;;2.70;1.17;;;20.50;62.20;;;;;;6295477;28;20016;-70
2022/11/03 08:31:58;;;;;;;1.83;1.20;;;20.50;62.20;;;;;;6295768;28;20016;-70
2022/11/03 08:34:59;;;;;;;1.80;1.20;;;20.50;62.20;;;;;;6295857;28;20024;-70
2022/11/03 08:37:59;;;;;;;5.07;0.90;;;20.50;62.20;;;;;;6287967;28;20035;-70
2022/11/03 08:41:01;;;;;;;0.93;0.80;;;20.50;62.20;;;;;;6290415;28;20056;-70
2022/11/03 08:44:01;;;;;;;2.13;1.08;;;20.50;62.20;;;;;;6270442;28;20104;-70
2022/11/03 08:47:02;;;;;;;3.63;1.40;;;20.50;62.20;;;;;;6278238;28;20050;-71
2022/11/03 08:50:04;;;;;;;1.27;0.93;;;20.50;62.10;;;;;;6294913;28;20035;-70
2022/11/03 08:53:04;;;;;;;2.33;1.05;;;20.50;62.20;;;;;;6295643;28;20055;-70
2022/11/03 08:56:06;;;;;;;2.63;1.08;;;20.50;62.10;;;;;;6293782;28;20032;-70
2022/11/03 08:59:06;;;;;;;1.50;0.98;;;20.50;62.00;;;;;;6294929;28;20390;-70
2022/11/03 09:02:07;;;;;;;1.67;1.00;;;20.50;62.20;;;;;;6295043;28;20090;-70
2022/11/03 09:05:08;;;;;;;2.97;1.20;;;20.50;62.20;;;;;;6295837;28;20031;-70
2022/11/03 09:08:09;;;;;;;1.63;1.13;;;20.50;62.20;;;;;;6294887;28;20043;-70
2022/11/03 09:11:09;;;;;;;1.83;1.02;;;20.50;62.20;;;;;;6294788;28;20371;-71
2022/11/03 09:14:10;;;;;;;1.42;1.00;;;20.50;62.20;;;;;;6294488;28;20033;-70
2022/11/03 09:17:11;;;;;;;1.70;0.98;;;20.50;62.20;;;;;;6294860;28;20021;-71
2022/11/03 09:20:11;;;;;;;3.13;1.00;;;20.50;62.20;;;;;;6294296;28;20111;-70
2022/11/03 09:23:12;;;;;;;1.77;0.90;;;20.50;62.20;;;;;;6294761;28;20017;-69
2022/11/03 09:26:13;;;;;;;1.58;1.00;;;20.50;62.20;;;;;;6294748;28;20029;-70
2022/11/03 09:29:13;;;;;;;2.08;0.90;;;20.50;62.20;;;;;;6294211;28;20021;-70
2022/11/03 09:32:15;;;;;;;4.68;1.27;;;20.50;62.10;;;;;;6292437;28;20028;-69
2022/11/03 09:35:15;;;;;;;1.77;1.15;;;20.50;61.60;;;;;;6269683;28;20111;-70
2022/11/03 09:38:16;;;;;;;3.75;1.35;;;20.50;60.80;;;;;;6282897;28;20033;-70
2022/11/03 09:41:17;;;;;;;4.97;1.02;;;20.50;60.50;;;;;;6284547;28;20391;-69
2022/11/03 09:44:18;;;;;;;3.20;1.30;;;20.50;59.60;;;;;;6281469;28;20064;-69
2022/11/03 09:47:26;;;;;;;7.93;1.70;;;20.60;59.60;;;;;;6290338;28;20524;-69
2022/11/03 09:50:27;;;;;;;3.55;1.90;;;20.60;59.70;;;;;;6293684;28;20503;-70
2022/11/03 09:53:29;;;;;;;2.60;1.38;;;20.60;59.60;;;;;;6281089;28;20082;-70
2022/11/03 09:56:31;;;;;;;7.68;1.70;;;20.60;60.00;;;;;;6294042;28;20056;-69
2022/11/03 09:59:31;;;;;;;2.58;1.48;;;20.50;60.40;;;;;;6293834;28;20032;-69
2022/11/03 10:02:35;;;;;;;2.55;1.35;;;20.50;60.40;;;;;;6293701;28;20028;-70
2022/11/03 10:05:35;;;;;;;3.55;1.38;;;20.50;61.00;;;;;;6280496;28;20024;-70
2022/11/03 10:08:38;;;;;;;3.20;1.45;;;20.50;61.20;;;;;;6290115;28;20479;-70
2022/11/03 10:11:39;;;;;;;3.33;1.20;;;20.50;60.90;;;;;;6294894;28;20013;-70
2022/11/03 10:14:42;;;;;;;4.75;1.20;;;20.50;61.30;;;;;;6293239;28;20024;-70
2022/11/03 10:17:44;;;;;;;3.80;1.40;;;20.50;61.70;;;;;;6293749;28;20491;-69
2022/11/03 10:20:45;;;;;;;2.83;1.25;;;20.50;61.70;;;;;;6282064;28;20024;-70
2022/11/03 10:23:45;;;;;;;2.58;1.30;;;20.50;61.60;;;;;;6292980;28;20467;-70
2022/11/03 10:26:49;;;;;;;2.53;1.48;;;20.50;61.60;;;;;;6293109;28;20541;-70
2022/11/03 10:30:11;;;;;;;4.65;1.42;;;20.50;61.80;;;;;;6293689;28;20016;-71
2022/11/03 10:33:41;;;;;;;3.03;1.30;;;20.50;61.60;;;;;;6293331;28;20028;-70
2022/11/03 10:36:41;;;;;;;7.35;1.90;;;20.50;61.60;;;;;;6277807;28;20024;-70
2022/11/03 10:39:46;;;;;;;5.80;1.55;;;20.50;61.80;;;;;;6284080;28;20029;-70
2022/11/03 10:42:58;;;;;;;4.40;1.50;;;20.50;61.60;;;;;;6293304;28;20021;-69
2022/11/03 10:46:15;;;;;;;5.47;1.40;;;20.50;61.80;;;;;;6292957;28;20036;-70
2022/11/03 10:49:18;;;;;;;4.22;1.35;;;20.50;61.70;;;;;;6293232;28;20029;-71
2022/11/03 10:52:23;;;;;;;2.72;1.23;;;20.50;61.60;;;;;;6291069;28;20564;-70
2022/11/03 10:55:24;;;;;;;;;;;20.50;61.70;;;;;;6286784;28;20029;-70
2022/11/03 10:58:25;;;;;;;3.08;1.35;;;20.50;61.70;;;;;;6272560;28;20299;-70
2022/11/03 11:01:26;;;;;;;3.22;1.10;;;20.50;61.60;;;;;;6292934;28;20103;-70
2022/11/03 11:04:26;;;;;;;4.93;1.40;;;20.50;61.60;;;;;;6287216;28;20371;-70
2022/11/03 11:07:37;;;;;;;4.47;1.50;;;20.50;61.60;;;;;;6279792;28;20028;-70
2022/11/03 11:10:43;;;;;;;2.17;1.10;;;20.50;61.70;;;;;;6292212;28;20418;-70
2022/11/03 11:13:44;;;;;;;2.05;1.15;;;20.50;61.70;;;;;;6292919;28;20078;-69
2022/11/03 11:16:55;;;;;;;2.85;1.00;;;20.50;61.70;;;;;;6292868;28;20467;-70
2022/11/03 11:20:21;;;;;;;3.10;1.08;;;20.50;61.80;;;;;;6296213;28;20456;-69
2022/11/03 11:23:27;;;;;;;3.78;1.40;;;20.50;62.00;;;;;;6298260;28;20072;-69
2022/11/03 11:26:29;;;;;;;3.53;1.00;;;20.50;62.10;;;;;;6297812;28;20025;-69
2022/11/03 11:29:34;;;;;;;2.70;0.90;;;20.50;61.90;;;;;;6287988;28;20584;-70
2022/11/03 11:32:43;;;;;;;6.50;1.60;;;20.50;62.10;;;;;;6297251;28;20032;-69
2022/11/03 11:35:47;;;;;;;3.28;1.63;;;20.50;62.10;;;;;;6297128;28;20024;-69
2022/11/03 11:38:48;;;;;;;2.63;1.42;;;20.50;62.00;;;;;;6297373;28;20063;-70
2022/11/03 11:42:08;;;;;;;2.95;1.20;;;20.50;62.20;;;;;;6296905;28;20036;-69
2022/11/03 11:45:09;;;;;;;2.72;1.10;;;20.50;62.00;;;;;;6296875;28;20017;-69
2022/11/03 11:48:16;;;;;;;2.38;1.15;;;20.50;62.10;;;;;;6296964;28;20043;-69
2022/11/03 11:51:17;;;;;;;2.45;0.93;;;20.50;62.10;;;;;;6296820;28;20063;-70
2022/11/03 11:54:19;;;;;;;2.33;1.13;;;20.50;62.20;;;;;;6296704;28;20064;-70
2022/11/03 11:57:21;;;;;;;3.47;1.02;;;20.40;61.90;;;;;;6296701;28;20016;-69
2022/11/03 12:00:27;;;;;;;3.22;1.50;;;20.50;62.10;;;;;;6296663;28;20028;-70
2022/11/03 12:03:30;;;;;;;2.40;1.17;;;20.40;62.10;;;;;;6292624;28;20734;-70
2022/11/03 12:06:31;;;;;;;2.00;1.17;;;20.50;62.20;;;;;;6296452;28;20024;-70
2022/11/03 12:09:32;;;;;;;2.08;1.30;;;20.50;62.20;;;;;;6291812;28;20391;-70
2022/11/03 12:12:33;;;;;;;7.95;1.10;;;20.50;62.10;;;;;;6293019;28;20032;-69
2022/11/03 12:15:56;;;;;;;2.63;1.10;;;20.50;62.20;;;;;;6290798;28;20373;-69
2022/11/03 12:19:17;;;;;;;6.25;1.15;;;20.50;62.10;;;;;;6291328;28;20440;-69
2022/11/03 12:22:23;;;;;;;3.83;1.35;;;20.50;62.20;;;;;;6284052;28;20099;-70
2022/11/03 12:25:35;;;;;;;3.20;1.17;;;20.50;62.10;;;;;;6283686;28;20094;-69
2022/11/03 12:28:36;;;;;;;5.53;1.20;;;20.50;62.10;;;;;;6292343;28;20028;-69
2022/11/03 12:31:37;;;;;;;3.70;1.30;;;20.50;62.10;;;;;;6288530;28;20055;-69
2022/11/03 12:34:37;;;;;;;3.72;1.05;;;20.50;62.30;;;;;;6296076;28;20039;-70
2022/11/03 12:37:38;;;;;;;3.95;1.20;;;20.50;62.10;;;;;;6286961;28;20071;-69
2022/11/03 12:40:39;;;;;;;2.63;1.20;;;20.40;62.00;;;;;;6293954;28;20082;-69
2022/11/03 12:43:39;;;;;;;2.78;1.50;;;20.50;62.10;;;;;;6296102;28;20036;-70
2022/11/03 12:46:40;;;;;;;2.35;1.00;;;20.50;62.30;;;;;;6295651;28;20025;-69
2022/11/03 12:49:40;;;;;;;2.33;1.20;;;20.40;63.00;;;;;;6296148;28;20066;-69
2022/11/03 12:52:41;;;;;;;2.85;1.20;;;20.50;62.20;;;;;;6289631;28;20048;-70
2022/11/03 12:55:42;;;;;;;1.88;1.02;;;20.50;62.20;;;;;;6294378;28;20033;-70
2022/11/03 12:58:42;;;;;;;3.92;1.40;;;20.50;62.20;;;;;;6292503;28;20026;-70
2022/11/03 13:01:43;;;;;;;2.45;1.33;;;20.50;62.30;;;;;;6295008;28;20040;-69
2022/11/03 13:04:44;;;;;;;4.10;1.00;;;20.50;62.30;;;;;;6295204;28;20028;-69
2022/11/03 13:07:44;;;;;;;2.05;1.10;;;20.50;62.40;;;;;;6294592;28;20020;-69
2022/11/03 13:10:45;;;;;;;2.47;1.10;;;20.50;62.40;;;;;;6295043;28;20016;-70
2022/11/03 13:13:45;;;;;;;2.00;1.00;;;20.50;62.20;;;;;;6295095;28;20036;-69
2022/11/03 13:16:46;;;;;;;5.32;1.23;;;20.50;62.20;;;;;;6292303;28;20035;-69
2022/11/03 13:19:46;;;;;;;6.13;1.70;;;20.50;62.30;;;;;;6293176;28;20032;-69
2022/11/03 13:22:47;;;;;;;4.35;1.13;;;20.40;62.30;;;;;;6292856;28;20035;-70
2022/11/03 13:25:47;;;;;;;3.20;1.02;;;20.40;62.20;;;;;;6294210;28;20032;-69
2022/11/03 13:28:48;;;;;;;2.70;1.10;;;20.50;62.30;;;;;;6293424;28;20379;-69
2022/11/03 13:31:49;;;;;;;3.22;2.05;;;20.50;62.40;;;;;;6293496;28;20028;-69
2022/11/03 13:34:49;;;;;;;2.35;1.10;;;20.50;62.50;;;;;;6293566;28;20025;-69
2022/11/03 13:37:50;;;;;;;1.27;0.93;;;20.50;63.20;;;;;;6292930;28;20031;-69
2022/11/03 13:40:50;;;;;;;2.95;0.80;;;20.50;62.40;;;;;;6292430;28;20080;-70
2022/11/03 13:43:51;;;;;;;1.50;0.90;;;20.50;62.40;;;;;;6293821;28;20497;-69
2022/11/03 13:46:52;;;;;;;1.70;1.00;;;20.50;62.40;;;;;;6292892;28;20055;-70
2022/11/03 13:49:53;;;;;;;1.58;0.90;;;20.50;62.40;;;;;;6293065;28;20103;-68
2022/11/03 13:52:54;;;;;;;1.58;1.05;;;20.50;62.30;;;;;;6286078;28;20091;-69
2022/11/03 13:55:54;;;;;;;1.30;0.85;;;20.50;62.40;;;;;;6291061;28;20032;-70
2022/11/03 13:58:55;;;;;;;1.58;1.00;;;20.50;62.40;;;;;;6292772;28;20028;-70
2022/11/03 14:01:55;;;;;;;5.03;1.30;;;20.40;62.30;;;;;;6292440;28;20060;-70
2022/11/03 14:04:56;;;;;;;1.83;1.00;;;20.50;62.40;;;;;;6292262;28;20504;-69
2022/11/03 14:07:57;;;;;;;1.38;0.95;;;20.50;62.40;;;;;;6292630;28;20052;-70
2022/11/03 14:10:57;;;;;;;1.30;0.90;;;20.50;62.40;;;;;;6292948;28;20112;-70
2022/11/03 14:13:58;;;;;;;1.08;0.75;;;20.40;62.50;;;;;;6292949;28;20035;-70
2022/11/03 14:16:58;;;;;;;1.73;0.80;;;20.50;62.60;;;;;;6293325;28;20032;-69
2022/11/03 14:19:59;;;;;;;2.28;1.00;;;20.50;62.50;;;;;;6292880;28;20463;-70
2022/11/03 14:23:00;;;;;;;2.88;1.30;;;20.40;62.50;;;;;;6292546;28;20042;-69
2022/11/03 14:26:00;;;;;;;2.35;1.10;;;20.50;62.60;;;;;;6292540;28;20039;-70
2022/11/03 14:29:01;;;;;;;2.53;1.35;;;20.50;62.60;;;;;;6291210;28;20082;-69
2022/11/03 14:32:01;;;;;;;1.55;1.13;;;20.50;62.60;;;;;;6292448;28;20032;-69
2022/11/03 14:35:02;;;;;;;2.80;0.98;;;20.40;62.60;;;;;;6292335;28;20026;-69
2022/11/03 14:38:03;;;;;;;6.22;1.10;;;20.40;62.20;;;;;;6292698;28;20091;-70
2022/11/03 14:44:22;;;;;;;6.15;1.98;;;20.40;60.20;;;;;;6290850;28;20029;-70
2022/11/03 14:47:24;;;;;;;8.40;1.60;;;20.40;58.10;;;;;;6292558;28;20070;-70
2022/11/03 14:50:25;;;;;;;10.30;2.08;;;20.40;58.60;;;;;;6292287;28;20510;-70
2022/11/03 14:53:25;;;;;;;4.72;1.73;;;20.40;58.10;;;;;;6294896;28;20029;-69
2022/11/03 14:56:26;;;;;;;2.67;1.50;;;20.40;59.30;;;;;;6297079;28;20021;-70
2022/11/03 14:59:27;;;;;;;3.78;1.48;;;20.40;60.00;;;;;;6296843;28;20078;-70
2022/11/03 15:02:28;;;;;;;3.10;1.45;;;20.40;60.20;;;;;;6297059;28;20430;-71
2022/11/03 15:05:44;;;;;;;4.50;1.55;;;20.40;60.00;;;;;;6291567;28;20032;-70
2022/11/03 15:08:44;;;;;;;5.35;1.70;;;20.40;59.50;;;;;;6297065;28;20051;-70
2022/11/03 15:11:45;;;;;;;5.85;1.75;;;20.40;59.50;;;;;;6287885;28;20024;-70
2022/11/03 15:14:46;;;;;;;4.03;1.60;;;20.40;59.70;;;;;;6276528;28;20025;-70
2022/11/03 15:17:47;;;;;;;4.57;1.80;;;20.40;60.70;;;;;;6283983;28;20020;-68
2022/11/03 15:20:48;;;;;;;4.53;1.98;;;20.40;59.80;;;;;;6296712;28;20024;-69
2022/11/03 15:23:48;;;;;;;3.72;1.58;;;20.40;60.30;;;;;;6294009;28;20029;-69
2022/11/03 15:26:49;;;;;;;4.82;1.65;;;20.40;60.00;;;;;;6296989;28;20103;-68
2022/11/03 15:29:50;;;;;;;4.13;1.42;;;20.40;60.30;;;;;;6296113;28;20028;-69
2022/11/03 15:32:50;;;;;;;4.93;1.60;;;20.40;60.70;;;;;;6296588;28;20467;-69
2022/11/03 15:35:51;;;;;;;3.72;1.40;;;20.40;60.60;;;;;;6296960;28;20034;-69
2022/11/03 15:38:52;;;;;;;3.97;1.73;;;20.40;60.40;;;;;;6296509;28;20119;-69
2022/11/03 15:41:52;;;;;;;3.20;1.55;;;20.40;60.60;;;;;;6296252;28;20037;-69
2022/11/03 15:44:53;;;;;;;3.30;1.40;;;20.40;60.40;;;;;;6286893;28;20103;-69
2022/11/03 15:47:54;;;;;;;4.25;1.60;;;20.40;60.60;;;;;;6295839;28;20050;-70
2022/11/03 15:50:54;;;;;;;2.30;1.23;;;20.40;60.40;;;;;;6296003;28;20048;-69
2022/11/03 15:53:55;;;;;;;5.13;1.33;;;20.40;60.60;;;;;;6291129;28;20081;-69
2022/11/03 15:56:56;;;;;;;3.67;1.38;;;20.40;60.70;;;;;;6280779;28;20020;-70
2022/11/03 15:59:56;;;;;;;2.58;1.50;;;20.40;60.60;;;;;;6277619;28;20025;-71
2022/11/03 16:02:57;;;;;;;2.00;1.20;;;20.40;60.70;;;;;;6287590;28;20040;-69
2022/11/03 16:05:57;;;;;;;3.00;1.27;;;20.40;61.00;;;;;;6295584;28;20107;-69
2022/11/03 16:08:58;;;;;;;2.75;1.30;;;20.40;60.90;;;;;;6295488;28;20039;-70
2022/11/03 16:11:59;;;;;;;2.38;1.30;;;20.40;61.00;;;;;;6295451;28;20353;-69
2022/11/03 16:14:59;;;;;;;2.83;1.50;;;20.40;60.80;;;;;;6295825;28;20647;-69
2022/11/03 16:18:01;;;;;;;3.47;1.40;;;20.40;61.10;;;;;;6295746;28;20029;-71